Time;durP1;ratioP1;P1;durP2;ratioP2;P2;SDS_P1;SDS_P2;PMS_P1;PMS_P2;Temp;Humidity;BMP_temperature;BMP_pressure;BME280_temperature;BME280_humidity;BME280_pressure;Samples;Min_cycle;Max_cycle;Signal;HPM_P1;HPM_P2
2023/12/18 00:00:38;;;;;;;25.20;22.60;;;1.80;99.90;;;;;;5018807;28;20473;-79
2023/12/18 00:03:05;;;;;;;26.03;23.33;;;1.80;99.90;;;;;;5018656;28;20452;-79
2023/12/18 00:05:32;;;;;;;25.80;23.20;;;1.80;99.90;;;;;;5017726;28;20443;-79
2023/12/18 00:07:58;;;;;;;24.47;22.07;;;1.80;99.90;;;;;;5017684;28;20489;-80
2023/12/18 00:10:26;;;;;;;24.20;21.90;;;1.80;99.90;;;;;;5018013;28;20470;-80
2023/12/18 00:12:53;;;;;;;25.63;22.87;;;1.80;99.90;;;;;;5017772;28;20445;-80
2023/12/18 00:15:20;;;;;;;25.30;22.80;;;1.70;99.90;;;;;;5018084;28;20444;-79
2023/12/18 00:17:46;;;;;;;25.20;22.67;;;1.70;99.90;;;;;;5017798;28;20442;-81
2023/12/18 00:20:13;;;;;;;25.90;23.33;;;1.70;99.90;;;;;;5017478;28;20464;-79
2023/12/18 00:22:40;;;;;;;25.23;22.50;;;1.70;99.90;;;;;;5018293;28;20452;-79
2023/12/18 00:25:07;;;;;;;25.53;22.57;;;1.70;99.90;;;;;;5017920;28;20472;-81
2023/12/18 00:27:35;;;;;;;26.10;23.40;;;1.60;99.90;;;;;;5018058;28;20849;-79
2023/12/18 00:30:02;;;;;;;24.63;22.03;;;1.60;99.90;;;;;;5019012;28;20460;-79
2023/12/18 00:32:29;;;;;;;25.70;23.17;;;1.60;99.90;;;;;;5017840;28;20881;-79
2023/12/18 00:34:55;;;;;;;27.90;23.07;;;1.60;99.90;;;;;;5019027;28;20438;-78
2023/12/18 00:37:22;;;;;;;26.60;23.60;;;1.60;99.90;;;;;;5022991;28;20444;-76
2023/12/18 00:39:49;;;;;;;26.73;24.13;;;1.60;99.90;;;;;;5018630;28;20482;-78
2023/12/18 00:42:16;;;;;;;25.93;23.00;;;1.60;99.90;;;;;;5020006;28;20465;-79
2023/12/18 00:44:44;;;;;;;25.97;23.27;;;1.60;99.90;;;;;;5020009;28;20446;-79
2023/12/18 00:47:11;;;;;;;25.20;22.57;;;1.60;99.90;;;;;;5021631;28;20488;-79
2023/12/18 00:49:37;;;;;;;24.77;22.37;;;1.60;99.90;;;;;;5020198;28;20478;-78
2023/12/18 00:52:04;;;;;;;24.00;21.60;;;1.50;99.90;;;;;;5019870;28;20574;-80
2023/12/18 00:54:31;;;;;;;24.00;21.70;;;1.50;99.90;;;;;;5020641;28;20440;-79
2023/12/18 00:56:58;;;;;;;24.50;21.90;;;1.40;99.90;;;;;;5019782;28;20443;-78
2023/12/18 00:59:24;;;;;;;25.40;22.70;;;1.50;99.90;;;;;;5025968;28;20457;-77
2023/12/18 01:01:52;;;;;;;27.33;23.60;;;1.40;99.90;;;;;;5031779;28;20953;-78
2023/12/18 01:04:19;;;;;;;28.27;23.50;;;1.40;99.90;;;;;;5025148;28;20447;-79
2023/12/18 01:06:46;;;;;;;25.87;23.17;;;1.40;99.90;;;;;;5013791;28;20467;-79
2023/12/18 01:09:13;;;;;;;27.80;24.30;;;1.40;99.90;;;;;;5013976;28;20626;-80
2023/12/18 01:11:42;;;;;;;27.33;24.43;;;1.40;99.90;;;;;;5015481;28;20465;-80
2023/12/18 01:14:10;;;;;;;26.90;24.10;;;1.40;99.90;;;;;;5023437;28;20440;-81
2023/12/18 01:16:36;;;;;;;25.30;22.70;;;1.40;99.90;;;;;;5016404;28;20457;-79
2023/12/18 01:19:05;;;;;;;26.40;23.77;;;1.30;99.90;;;;;;5017916;28;20991;-79
2023/12/18 01:21:31;;;;;;;25.93;23.37;;;1.30;99.90;;;;;;5018477;28;20476;-78
2023/12/18 01:23:59;;;;;;;25.00;22.33;;;1.30;99.90;;;;;;5018709;28;20447;-80
2023/12/18 01:26:26;;;;;;;26.70;23.83;;;1.60;99.90;;;;;;5018771;28;20453;-81
2023/12/18 01:28:52;;;;;;;25.93;23.20;;;1.20;99.90;;;;;;5018604;28;20479;-79
2023/12/18 01:31:22;;;;;;;25.67;22.90;;;1.20;99.90;;;;;;5018917;28;20456;-78
2023/12/18 01:33:50;;;;;;;26.27;23.13;;;1.20;99.90;;;;;;5020515;28;20465;-79
2023/12/18 01:36:18;;;;;;;26.77;23.90;;;1.30;99.90;;;;;;5020069;28;20452;-80
2023/12/18 01:38:44;;;;;;;27.93;23.50;;;1.60;99.90;;;;;;5020479;28;20482;-78
2023/12/18 01:41:11;;;;;;;26.83;23.90;;;1.30;99.90;;;;;;5020937;28;20463;-79
2023/12/18 01:43:38;;;;;;;26.47;23.77;;;1.30;99.90;;;;;;5019711;28;20834;-78
2023/12/18 01:46:06;;;;;;;26.40;23.53;;;1.30;99.90;;;;;;5021314;28;20455;-80
2023/12/18 01:48:33;;;;;;;28.70;23.57;;;1.30;99.90;;;;;;5018349;28;20487;-78
2023/12/18 01:51:01;;;;;;;27.70;24.83;;;1.30;99.90;;;;;;5019957;28;20455;-80
2023/12/18 01:53:32;;;;;;;27.80;24.77;;;1.30;99.90;;;;;;5019862;28;20443;-79
2023/12/18 01:56:01;;;;;;;24.43;22.03;;;1.30;99.90;;;;;;5019918;28;20453;-81
2023/12/18 01:58:29;;;;;;;24.80;22.30;;;1.50;99.90;;;;;;5020343;28;20466;-80
2023/12/18 02:00:56;;;;;;;27.30;24.50;;;1.30;99.90;;;;;;5019924;28;21000;-80
2023/12/18 02:03:24;;;;;;;26.03;23.40;;;1.30;99.90;;;;;;5019987;28;20437;-80
2023/12/18 02:05:50;;;;;;;26.37;23.63;;;1.20;99.90;;;;;;5020292;28;20448;-81
2023/12/18 02:08:17;;;;;;;27.77;24.23;;;1.20;99.90;;;;;;5019493;28;20522;-77
2023/12/18 02:10:45;;;;;;;27.30;24.57;;;1.20;99.90;;;;;;5020481;28;20472;-80
2023/12/18 02:13:12;;;;;;;28.13;25.33;;;1.20;99.90;;;;;;5020242;28;20959;-78
2023/12/18 02:15:40;;;;;;;28.43;25.40;;;1.50;99.90;;;;;;5020752;28;20444;-81
2023/12/18 02:18:06;;;;;;;26.43;23.70;;;1.20;99.90;;;;;;5021637;28;20441;-78
2023/12/18 02:20:33;;;;;;;26.63;23.17;;;1.20;99.90;;;;;;5021220;28;20535;-81
2023/12/18 02:23:02;;;;;;;25.63;23.03;;;1.50;99.90;;;;;;5021287;28;20502;-80
2023/12/18 02:25:29;;;;;;;26.00;23.50;;;1.20;99.90;;;;;;5020832;28;20950;-80
2023/12/18 02:27:56;;;;;;;27.20;24.30;;;1.10;99.90;;;;;;5021187;28;20898;-79
2023/12/18 02:30:23;;;;;;;27.63;24.80;;;1.10;99.90;;;;;;5020456;28;20482;-80
2023/12/18 02:32:50;;;;;;;26.30;23.67;;;1.10;99.90;;;;;;5021167;28;20457;-81
2023/12/18 02:35:17;;;;;;;27.40;24.43;;;1.10;99.90;;;;;;5019225;28;20455;-78
2023/12/18 02:37:44;;;;;;;27.03;24.20;;;1.00;99.90;;;;;;5021337;28;20445;-80
2023/12/18 02:40:12;;;;;;;25.47;22.97;;;1.00;99.90;;;;;;5020813;28;20471;-81
2023/12/18 02:42:39;;;;;;;28.47;25.57;;;1.10;99.90;;;;;;5021062;28;20453;-81
2023/12/18 02:45:06;;;;;;;26.47;23.67;;;1.10;99.90;;;;;;5020385;28;20882;-80
2023/12/18 02:47:33;;;;;;;25.93;23.23;;;1.10;99.90;;;;;;5020305;28;20453;-78
2023/12/18 02:50:00;;;;;;;26.23;23.43;;;1.10;99.90;;;;;;5021522;28;20467;-79
2023/12/18 02:52:26;;;;;;;25.93;23.40;;;1.10;99.90;;;;;;5021216;28;20440;-79
2023/12/18 02:54:53;;;;;;;28.00;23.10;;;1.10;99.90;;;;;;5020487;28;20442;-81
2023/12/18 02:57:21;;;;;;;25.13;22.63;;;1.10;99.90;;;;;;5021637;28;20441;-81
2023/12/18 02:59:48;;;;;;;28.43;23.50;;;1.50;99.90;;;;;;5021635;28;20984;-79
2023/12/18 03:02:15;;;;;;;27.43;24.83;;;1.10;99.90;;;;;;5020607;28;20937;-79
2023/12/18 03:04:41;;;;;;;25.93;23.37;;;1.10;99.90;;;;;;5021088;28;20437;-79
2023/12/18 03:07:10;;;;;;;25.93;23.33;;;1.10;99.90;;;;;;5020635;28;20467;-80
2023/12/18 03:09:37;;;;;;;26.10;23.40;;;1.00;99.90;;;;;;5020110;28;20554;-80
2023/12/18 03:12:05;;;;;;;25.97;23.20;;;1.00;99.90;;;;;;5020433;28;20455;-81
2023/12/18 03:14:32;;;;;;;25.37;22.63;;;1.00;99.90;;;;;;5021469;28;20443;-79
2023/12/18 03:16:59;;;;;;;25.50;22.83;;;1.00;99.90;;;;;;5021169;28;20442;-79
2023/12/18 03:19:26;;;;;;;24.77;22.17;;;1.00;99.90;;;;;;5021262;28;20448;-79
2023/12/18 03:21:52;;;;;;;26.10;23.50;;;1.00;99.90;;;;;;5021338;28;20439;-79
2023/12/18 03:24:20;;;;;;;24.33;21.93;;;1.00;99.90;;;;;;5020789;28;20437;-78
2023/12/18 03:26:47;;;;;;;25.60;22.93;;;1.00;99.90;;;;;;5022034;28;20813;-79
2023/12/18 03:29:13;;;;;;;24.17;21.60;;;1.00;99.90;;;;;;5022421;28;20507;-80
2023/12/18 03:31:41;;;;;;;23.40;21.30;;;1.00;99.90;;;;;;5020838;28;20459;-80
2023/12/18 03:34:08;;;;;;;24.77;22.33;;;0.90;99.90;;;;;;5020779;28;20456;-80
2023/12/18 03:36:35;;;;;;;24.03;21.50;;;1.00;99.90;;;;;;5020795;28;20467;-81
2023/12/18 03:39:01;;;;;;;22.73;20.57;;;0.90;99.90;;;;;;5020961;28;20447;-79
2023/12/18 03:41:28;;;;;;;23.00;20.80;;;0.90;99.90;;;;;;5019838;28;20471;-81
2023/12/18 03:43:55;;;;;;;24.63;22.13;;;0.90;99.90;;;;;;5020338;28;20439;-80
2023/12/18 03:46:21;;;;;;;24.33;21.37;;;0.90;99.90;;;;;;5019875;28;20941;-79
2023/12/18 03:48:49;;;;;;;22.70;20.40;;;0.90;99.90;;;;;;5019832;28;20475;-80
2023/12/18 03:51:16;;;;;;;23.80;21.27;;;0.90;99.90;;;;;;5020405;28;20469;-79
2023/12/18 03:53:43;;;;;;;23.10;20.60;;;1.00;99.90;;;;;;5019688;28;20433;-81
2023/12/18 03:56:09;;;;;;;22.80;20.60;;;0.90;99.90;;;;;;5019567;28;20443;-79
2023/12/18 03:58:36;;;;;;;23.27;21.07;;;0.90;99.90;;;;;;5020239;28;20435;-78
2023/12/18 04:01:03;;;;;;;22.33;19.80;;;0.90;99.90;;;;;;5019976;28;20533;-80
2023/12/18 04:03:30;;;;;;;25.07;20.67;;;0.90;99.90;;;;;;5019987;28;20448;-79
2023/12/18 04:05:58;;;;;;;22.37;20.00;;;0.90;99.90;;;;;;5019437;28;20436;-82
2023/12/18 04:08:25;;;;;;;22.93;20.40;;;0.90;99.90;;;;;;5033652;28;20494;-77
2023/12/18 04:10:52;;;;;;;22.07;19.83;;;0.90;99.90;;;;;;5033385;28;20483;-77
2023/12/18 04:13:19;;;;;;;24.63;19.73;;;0.90;99.90;;;;;;5033614;28;20449;-76
2023/12/18 04:15:46;;;;;;;24.00;19.93;;;1.10;99.90;;;;;;5032847;28;20964;-78
2023/12/18 04:18:12;;;;;;;22.57;19.43;;;0.80;99.90;;;;;;5029116;28;20937;-78
2023/12/18 04:20:39;;;;;;;21.50;19.30;;;0.80;99.90;;;;;;5021724;28;20474;-80
2023/12/18 04:23:07;;;;;;;21.27;19.17;;;1.10;99.90;;;;;;5022067;28;20447;-81
2023/12/18 04:25:34;;;;;;;22.70;18.93;;;0.80;99.90;;;;;;5021856;28;21023;-78
2023/12/18 04:28:01;;;;;;;20.43;18.20;;;0.80;99.90;;;;;;5019901;28;20528;-78
2023/12/18 04:30:27;;;;;;;20.33;18.33;;;1.20;99.90;;;;;;5020764;28;20471;-81
2023/12/18 04:32:54;;;;;;;20.90;18.10;;;1.20;99.90;;;;;;5020696;28;20441;-80
2023/12/18 04:35:20;;;;;;;24.53;20.30;;;0.80;99.90;;;;;;5020089;28;20439;-79
2023/12/18 04:37:47;;;;;;;20.50;17.87;;;0.70;99.90;;;;;;5019292;28;20819;-78
2023/12/18 04:40:15;;;;;;;21.23;19.23;;;0.70;99.90;;;;;;5025044;28;20459;-79
2023/12/18 04:42:42;;;;;;;20.47;18.27;;;0.70;99.90;;;;;;5019707;28;20493;-80
2023/12/18 04:45:10;;;;;;;19.33;17.33;;;0.70;99.90;;;;;;5017469;28;20445;-80
2023/12/18 04:47:36;;;;;;;20.03;18.13;;;0.70;99.90;;;;;;5017735;28;20451;-80
2023/12/18 04:50:03;;;;;;;20.47;18.33;;;0.70;99.90;;;;;;5019604;28;20492;-79
2023/12/18 04:52:30;;;;;;;19.30;17.30;;;0.70;99.90;;;;;;5019938;28;20435;-80
2023/12/18 04:54:57;;;;;;;20.23;18.17;;;0.70;99.90;;;;;;5023996;28;20435;-78
2023/12/18 04:57:25;;;;;;;19.40;17.50;;;0.80;99.90;;;;;;5026067;28;20443;-79
2023/12/18 04:59:52;;;;;;;19.13;17.23;;;0.80;99.90;;;;;;5025220;28;20461;-81
2023/12/18 05:02:18;;;;;;;19.17;17.27;;;0.80;99.90;;;;;;5027736;28;20448;-79
2023/12/18 05:04:45;;;;;;;19.33;17.47;;;0.80;99.90;;;;;;5027020;28;20451;-79
2023/12/18 05:07:12;;;;;;;19.47;17.53;;;0.80;99.90;;;;;;5023956;28;20451;-79
2023/12/18 05:09:39;;;;;;;19.43;17.60;;;0.80;99.90;;;;;;5023484;28;20487;-80
2023/12/18 05:12:06;;;;;;;19.27;17.37;;;0.80;99.90;;;;;;5023818;28;20520;-79
2023/12/18 05:14:34;;;;;;;17.70;16.00;;;0.80;99.90;;;;;;5023609;28;20444;-80
2023/12/18 05:17:01;;;;;;;19.33;17.50;;;1.00;99.90;;;;;;5023025;28;20458;-80
2023/12/18 05:19:27;;;;;;;19.93;17.93;;;0.70;99.90;;;;;;5022306;28;20491;-80
2023/12/18 05:21:54;;;;;;;20.17;18.17;;;0.70;99.90;;;;;;5023123;28;20454;-80
2023/12/18 05:24:21;;;;;;;21.00;18.83;;;0.70;99.90;;;;;;5023747;28;20464;-80
2023/12/18 05:26:47;;;;;;;18.60;16.80;;;1.10;99.90;;;;;;5022702;28;20443;-79
2023/12/18 05:29:14;;;;;;;20.73;17.67;;;1.00;99.90;;;;;;5022452;28;20483;-78
2023/12/18 05:31:42;;;;;;;19.70;17.70;;;0.70;99.90;;;;;;5021804;28;20463;-79
2023/12/18 05:34:09;;;;;;;19.47;17.47;;;0.60;99.90;;;;;;5022731;28;20945;-80
2023/12/18 05:36:35;;;;;;;19.53;16.27;;;0.60;99.90;;;;;;5022785;28;20456;-82
2023/12/18 05:39:02;;;;;;;20.97;18.77;;;1.00;99.90;;;;;;5021785;28;20522;-81
2023/12/18 05:41:29;;;;;;;19.67;17.33;;;0.70;99.90;;;;;;5022038;28;20501;-81
2023/12/18 05:43:55;;;;;;;18.97;17.20;;;0.90;99.90;;;;;;5021968;28;20525;-80
2023/12/18 05:46:22;;;;;;;19.93;17.10;;;0.70;99.90;;;;;;5021042;28;20505;-81
2023/12/18 05:48:50;;;;;;;22.90;17.83;;;0.70;99.90;;;;;;5020778;28;20545;-79
2023/12/18 05:51:20;;;;;;;44.23;37.60;;;0.70;99.90;;;;;;5019843;28;20452;-80
2023/12/18 05:53:47;;;;;;;25.80;23.10;;;0.60;99.90;;;;;;5020289;28;20443;-80
2023/12/18 05:56:14;;;;;;;21.20;18.90;;;0.60;99.90;;;;;;5020364;28;20454;-80
2023/12/18 05:58:40;;;;;;;19.17;17.20;;;0.60;99.90;;;;;;5020280;28;20494;-79
2023/12/18 06:01:08;;;;;;;17.53;15.70;;;0.60;99.90;;;;;;5019730;28;20898;-80
2023/12/18 06:03:35;;;;;;;18.17;16.47;;;0.60;99.90;;;;;;5019559;28;20825;-79
2023/12/18 06:06:03;;;;;;;18.93;16.20;;;0.60;99.90;;;;;;5019670;28;20453;-80
2023/12/18 06:08:30;;;;;;;19.37;16.60;;;0.60;99.90;;;;;;5020494;28;21003;-78
2023/12/18 06:10:56;;;;;;;18.73;16.83;;;0.60;99.90;;;;;;5019270;28;20965;-80
2023/12/18 06:13:23;;;;;;;23.07;17.60;;;0.60;99.90;;;;;;5019769;28;20452;-79
2023/12/18 06:15:50;;;;;;;19.83;17.67;;;0.60;99.90;;;;;;5022971;28;20478;-82
2023/12/18 06:18:16;;;;;;;18.70;16.90;;;0.60;99.90;;;;;;5021696;28;20797;-82
2023/12/18 06:20:43;;;;;;;23.73;19.67;;;0.60;99.90;;;;;;5022415;28;20785;-80
2023/12/18 06:23:11;;;;;;;22.07;19.50;;;0.60;99.90;;;;;;5021887;28;20443;-79
2023/12/18 06:25:38;;;;;;;21.20;17.97;;;1.00;99.90;;;;;;5019542;28;20514;-81
2023/12/18 06:28:05;;;;;;;20.77;17.53;;;0.60;99.90;;;;;;5015161;28;20457;-81
2023/12/18 06:30:32;;;;;;;19.13;17.13;;;0.60;99.90;;;;;;5016468;28;20486;-78
2023/12/18 06:32:59;;;;;;;19.03;15.20;;;0.60;99.90;;;;;;5015297;28;21024;-80
2023/12/18 06:35:25;;;;;;;18.17;16.27;;;0.60;99.90;;;;;;5015554;28;20455;-81
2023/12/18 06:37:52;;;;;;;19.80;17.90;;;0.70;99.90;;;;;;5016236;28;20451;-78
2023/12/18 06:40:20;;;;;;;47.37;40.40;;;0.80;99.90;;;;;;5016230;28;20474;-80
2023/12/18 06:42:47;;;;;;;24.97;22.27;;;0.60;99.90;;;;;;5015535;28;20642;-79
2023/12/18 06:45:13;;;;;;;20.13;18.00;;;0.60;99.90;;;;;;5014859;28;21012;-79
2023/12/18 06:47:40;;;;;;;19.73;17.73;;;0.60;99.90;;;;;;5014892;28;20444;-79
2023/12/18 06:50:07;;;;;;;17.50;15.60;;;0.60;99.90;;;;;;5015004;28;20486;-79
2023/12/18 06:52:34;;;;;;;18.20;16.40;;;0.60;99.90;;;;;;5015372;28;20436;-79
2023/12/18 06:55:01;;;;;;;18.33;16.10;;;0.60;99.90;;;;;;5016052;28;20904;-80
2023/12/18 06:57:29;;;;;;;17.93;15.80;;;0.60;99.90;;;;;;5014337;28;21042;-79
2023/12/18 06:59:56;;;;;;;18.10;16.40;;;0.60;99.90;;;;;;5015828;28;20587;-80
2023/12/18 07:02:22;;;;;;;18.67;15.80;;;0.60;99.90;;;;;;5017788;28;20459;-80
2023/12/18 07:04:49;;;;;;;18.10;15.93;;;0.90;99.90;;;;;;5016811;28;20445;-79
2023/12/18 07:07:18;;;;;;;19.33;15.73;;;0.60;99.90;;;;;;5016541;28;20459;-79
2023/12/18 07:09:44;;;;;;;18.60;16.80;;;0.60;99.90;;;;;;5014698;28;20479;-79
2023/12/18 07:12:11;;;;;;;18.90;15.37;;;0.50;99.90;;;;;;5015755;28;20447;-79
2023/12/18 07:14:42;;;;;;;17.20;15.37;;;0.60;99.90;;;;;;5015964;28;20447;-78
2023/12/18 07:17:09;;;;;;;18.87;15.77;;;0.60;99.90;;;;;;5014807;28;20416;-79
2023/12/18 07:19:38;;;;;;;18.83;15.87;;;0.80;99.90;;;;;;5014589;28;20446;-79
2023/12/18 07:22:05;;;;;;;17.73;15.83;;;0.90;99.90;;;;;;5015064;28;20486;-79
2023/12/18 07:24:32;;;;;;;17.77;15.97;;;0.60;99.90;;;;;;5013841;28;20432;-80
2023/12/18 07:26:59;;;;;;;17.43;15.77;;;0.60;99.90;;;;;;5016428;28;20459;-80
2023/12/18 07:29:26;;;;;;;23.33;20.60;;;0.90;99.90;;;;;;5017349;28;20855;-80
2023/12/18 07:31:54;;;;;;;20.33;18.20;;;0.60;99.90;;;;;;5036780;28;20431;-85
2023/12/18 07:34:20;;;;;;;18.37;16.57;;;0.60;99.90;;;;;;5037297;28;20448;-82
2023/12/18 07:36:47;;;;;;;17.13;15.33;;;0.60;99.90;;;;;;5035045;28;20438;-81
2023/12/18 07:39:14;;;;;;;18.80;15.87;;;0.70;99.90;;;;;;5034667;28;20446;-81
2023/12/18 07:41:41;;;;;;;17.87;16.10;;;0.60;99.90;;;;;;5035705;28;20479;-80
2023/12/18 07:44:08;;;;;;;21.80;16.03;;;0.60;99.90;;;;;;5035398;28;20459;-79
2023/12/18 07:46:35;;;;;;;20.53;17.00;;;0.60;99.90;;;;;;5028831;28;20439;-81
2023/12/18 07:49:03;;;;;;;18.03;16.10;;;0.60;99.90;;;;;;5018304;28;20550;-80
2023/12/18 07:51:29;;;;;;;18.27;16.37;;;0.70;99.90;;;;;;5018726;28;20479;-80
2023/12/18 07:53:56;;;;;;;21.47;17.23;;;0.70;99.90;;;;;;5015128;28;20451;-78
2023/12/18 07:56:23;;;;;;;18.67;16.77;;;0.80;99.90;;;;;;5016053;28;20828;-81
2023/12/18 07:58:49;;;;;;;19.43;17.07;;;0.90;99.90;;;;;;5016185;28;20947;-80
2023/12/18 08:01:18;;;;;;;18.90;17.00;;;1.10;99.90;;;;;;5015637;28;20525;-79
2023/12/18 08:03:45;;;;;;;18.60;16.00;;;1.00;99.90;;;;;;5015355;28;20447;-80
2023/12/18 08:06:13;;;;;;;18.97;16.70;;;1.00;99.90;;;;;;5016605;28;20949;-79
2023/12/18 08:08:39;;;;;;;23.10;16.57;;;1.10;99.90;;;;;;5015453;28;20949;-78
2023/12/18 08:11:06;;;;;;;18.00;16.20;;;1.20;99.90;;;;;;5016544;28;20483;-79
2023/12/18 08:13:37;;;;;;;15.97;14.30;;;1.30;99.90;;;;;;5016689;28;20443;-79
2023/12/18 08:16:05;;;;;;;17.47;15.77;;;1.30;99.90;;;;;;5017378;28;20497;-80
2023/12/18 08:18:32;;;;;;;16.77;15.07;;;1.30;99.90;;;;;;5016065;28;20451;-81
2023/12/18 08:20:58;;;;;;;17.73;15.93;;;1.30;99.90;;;;;;5014785;28;20466;-79
2023/12/18 08:23:27;;;;;;;17.00;15.30;;;1.40;99.90;;;;;;5014395;28;20478;-82
2023/12/18 08:25:54;;;;;;;18.23;16.33;;;1.40;99.90;;;;;;5014357;28;20528;-79
2023/12/18 08:28:20;;;;;;;19.00;16.83;;;1.40;99.90;;;;;;5014376;28;20439;-79
2023/12/18 08:30:47;;;;;;;22.83;18.10;;;1.50;99.90;;;;;;5013663;28;20487;-82
2023/12/18 08:33:14;;;;;;;18.60;16.70;;;1.60;99.90;;;;;;5015160;28;20505;-78
2023/12/18 08:35:41;;;;;;;18.47;16.67;;;1.70;99.90;;;;;;5015572;28;20451;-80
2023/12/18 08:38:07;;;;;;;17.83;16.00;;;1.80;99.90;;;;;;5014088;28;20827;-83
2023/12/18 08:40:35;;;;;;;23.47;17.20;;;1.90;99.90;;;;;;5013415;28;20471;-79
2023/12/18 08:43:02;;;;;;;20.13;16.80;;;2.10;99.90;;;;;;5014982;28;20498;-81
2023/12/18 08:45:29;;;;;;;19.97;17.87;;;2.20;99.90;;;;;;5016555;28;20445;-80
2023/12/18 08:47:59;;;;;;;21.10;17.40;;;2.40;99.90;;;;;;5014831;28;20451;-83
2023/12/18 08:50:25;;;;;;;21.87;17.17;;;2.50;99.90;;;;;;5013699;28;21260;-81
2023/12/18 08:52:52;;;;;;;17.33;15.57;;;2.60;99.90;;;;;;5014286;28;20456;-79
2023/12/18 08:55:19;;;;;;;16.87;15.20;;;2.80;99.90;;;;;;5014671;28;20459;-79
2023/12/18 08:57:48;;;;;;;18.40;16.43;;;3.00;99.90;;;;;;5014832;28;20469;-80
2023/12/18 09:00:15;;;;;;;17.27;15.57;;;3.20;99.90;;;;;;5013683;28;20469;-79
2023/12/18 09:02:42;;;;;;;17.67;15.83;;;3.40;99.90;;;;;;5014034;28;20873;-81
2023/12/18 09:05:09;;;;;;;16.80;15.10;;;3.50;99.90;;;;;;5013253;28;20970;-79
2023/12/18 09:07:36;;;;;;;17.67;15.80;;;3.60;99.90;;;;;;5013541;28;20481;-78
2023/12/18 09:10:03;;;;;;;16.97;15.20;;;3.80;99.90;;;;;;5013606;28;20511;-79
2023/12/18 09:12:30;;;;;;;16.70;15.10;;;4.00;99.90;;;;;;5013982;28;20453;-78
2023/12/18 09:14:58;;;;;;;17.67;15.87;;;4.20;99.90;;;;;;5014192;28;20862;-80
2023/12/18 09:17:26;;;;;;;17.10;15.37;;;4.40;99.90;;;;;;5014027;28;20449;-80
2023/12/18 09:19:52;;;;;;;17.27;15.53;;;4.50;99.90;;;;;;5013994;28;20554;-79
2023/12/18 09:22:19;;;;;;;17.27;15.50;;;4.80;99.90;;;;;;5012992;28;20443;-79
2023/12/18 09:24:46;;;;;;;17.13;15.43;;;5.00;99.90;;;;;;5012457;28;20436;-78
2023/12/18 09:27:14;;;;;;;16.27;14.80;;;5.20;99.90;;;;;;5013372;28;20442;-80
2023/12/18 09:29:41;;;;;;;16.73;15.03;;;5.30;99.90;;;;;;5013003;28;20531;-80
2023/12/18 09:32:10;;;;;;;18.67;14.40;;;5.60;99.90;;;;;;5014496;28;20472;-80
2023/12/18 09:34:36;;;;;;;15.80;13.57;;;5.70;99.90;;;;;;5013190;28;20450;-79
2023/12/18 09:37:04;;;;;;;16.40;13.87;;;5.90;99.90;;;;;;5012860;28;20436;-78
2023/12/18 09:39:31;;;;;;;15.67;14.07;;;6.10;99.90;;;;;;5014770;28;20434;-80
2023/12/18 09:42:01;;;;;;;14.10;12.60;;;6.30;99.90;;;;;;5017406;28;20435;-80
2023/12/18 09:44:30;;;;;;;16.27;13.03;;;6.50;99.90;;;;;;5016874;28;20456;-80
2023/12/18 09:46:57;;;;;;;16.17;13.37;;;6.50;99.90;;;;;;5020630;28;20435;-80
2023/12/18 09:49:26;;;;;;;18.53;13.20;;;6.70;99.90;;;;;;5019326;28;20443;-80
2023/12/18 09:51:54;;;;;;;14.97;13.60;;;7.10;99.90;;;;;;5017551;28;20986;-78
2023/12/18 09:54:22;;;;;;;13.83;12.60;;;7.20;99.90;;;;;;5017061;28;20922;-78
2023/12/18 09:56:49;;;;;;;14.10;12.80;;;7.40;99.90;;;;;;5033384;28;20474;-81
2023/12/18 09:59:17;;;;;;;14.90;12.83;;;7.50;99.90;;;;;;5034283;28;20471;-80
2023/12/18 10:01:44;;;;;;;15.43;12.37;;;7.60;99.90;;;;;;5021129;28;20464;-81
2023/12/18 10:04:11;;;;;;;13.13;11.83;;;7.80;99.90;;;;;;5022834;28;20463;-79
2023/12/18 10:06:39;;;;;;;14.07;12.50;;;7.90;99.90;;;;;;5024268;28;20451;-84
2023/12/18 10:09:09;;;;;;;13.73;12.30;;;8.00;99.90;;;;;;5027066;28;20454;-79
2023/12/18 10:11:36;;;;;;;13.20;12.10;;;8.10;99.90;;;;;;5027446;28;20537;-79
2023/12/18 10:14:03;;;;;;;13.97;12.60;;;8.30;99.90;;;;;;5018815;28;20457;-80
2023/12/18 10:16:30;;;;;;;16.07;12.97;;;7.70;99.90;;;;;;5018614;28;20450;-80
2023/12/18 10:18:57;;;;;;;14.00;12.70;;;7.80;99.90;;;;;;5018153;28;20492;-81
2023/12/18 10:21:25;;;;;;;13.50;12.20;;;8.00;99.90;;;;;;5017892;28;20959;-79
2023/12/18 10:23:53;;;;;;;12.57;11.37;;;8.40;99.90;;;;;;5017489;28;20855;-80
2023/12/18 10:26:20;;;;;;;12.70;11.53;;;8.60;99.90;;;;;;5017535;28;20553;-81
2023/12/18 10:28:50;;;;;;;12.33;11.20;;;8.70;99.90;;;;;;5018717;28;20444;-81
2023/12/18 10:31:17;;;;;;;12.37;11.17;;;8.90;99.90;;;;;;5017888;28;20485;-80
2023/12/18 10:33:44;;;;;;;14.27;13.07;;;8.90;99.90;;;;;;5017755;28;20447;-79
2023/12/18 10:36:11;;;;;;;13.47;12.30;;;9.00;99.90;;;;;;5018167;28;20951;-81
2023/12/18 10:38:42;;;;;;;14.00;12.63;;;9.10;99.90;;;;;;5017167;28;20454;-81
2023/12/18 10:41:11;;;;;;;13.63;12.43;;;9.10;99.90;;;;;;5016623;28;20482;-81
2023/12/18 10:43:40;;;;;;;14.50;13.00;;;9.10;99.90;;;;;;5017006;28;20444;-81
2023/12/18 10:46:08;;;;;;;15.90;14.23;;;8.90;99.90;;;;;;5017720;28;20497;-80
2023/12/18 10:48:35;;;;;;;13.80;12.40;;;8.90;99.90;;;;;;5017619;28;20545;-80
2023/12/18 10:51:03;;;;;;;15.77;13.33;;;9.00;99.90;;;;;;5016221;28;20487;-80
2023/12/18 10:53:34;;;;;;;14.70;13.20;;;8.90;99.90;;;;;;5017466;28;20446;-80
2023/12/18 10:56:04;;;;;;;14.67;13.17;;;9.30;99.90;;;;;;5016962;28;20453;-80
2023/12/18 10:58:34;;;;;;;15.47;13.60;;;9.10;99.90;;;;;;5017640;28;20467;-81
2023/12/18 11:01:03;;;;;;;14.03;12.57;;;9.20;99.90;;;;;;5019059;28;20473;-80
2023/12/18 11:03:31;;;;;;;14.27;13.00;;;9.30;99.90;;;;;;5019818;28;20945;-80
2023/12/18 11:05:58;;;;;;;14.97;13.67;;;8.90;99.90;;;;;;5017206;28;20842;-79
2023/12/18 11:08:24;;;;;;;15.80;13.33;;;9.00;99.90;;;;;;5016508;28;20484;-83
2023/12/18 11:10:54;;;;;;;14.23;12.73;;;9.20;99.90;;;;;;5021217;28;20533;-81
2023/12/18 11:13:26;;;;;;;13.63;12.43;;;9.10;99.90;;;;;;5020990;28;20524;-80
2023/12/18 11:16:06;;;;;;;15.17;13.73;;;9.10;99.90;;;;;;5020941;28;20412;-80
2023/12/18 11:18:44;;;;;;;14.50;13.20;;;8.80;99.90;;;;;;5022403;28;20482;-82
2023/12/18 11:21:13;;;;;;;13.73;12.40;;;9.00;99.90;;;;;;5020879;28;20871;-82
2023/12/18 11:23:40;;;;;;;15.77;14.20;;;9.20;99.90;;;;;;5020940;28;20457;-81
2023/12/18 11:26:11;;;;;;;19.43;13.87;;;8.80;99.90;;;;;;5015774;28;20453;-81
2023/12/18 11:28:37;;;;;;;15.27;13.80;;;8.60;99.90;;;;;;5020870;28;20829;-83
2023/12/18 11:31:08;;;;;;;15.23;13.73;;;8.70;99.90;;;;;;5019307;28;20493;-80
2023/12/18 11:33:34;;;;;;;14.37;12.87;;;8.70;99.90;;;;;;5019517;28;20523;-80
2023/12/18 11:36:02;;;;;;;14.63;13.30;;;8.80;99.90;;;;;;5019754;28;20461;-84
2023/12/18 11:38:32;;;;;;;14.07;12.77;;;8.80;99.90;;;;;;5019376;28;20451;-81
2023/12/18 11:41:00;;;;;;;14.57;13.27;;;8.80;99.90;;;;;;5020306;28;20984;-80
2023/12/18 11:43:37;;;;;;;14.57;13.07;;;8.80;99.90;;;;;;5020174;28;20953;-80
2023/12/18 11:46:08;;;;;;;15.70;14.10;;;8.80;99.90;;;;;;5020157;28;20505;-81
2023/12/18 11:48:35;;;;;;;15.17;13.60;;;8.70;99.90;;;;;;5019454;28;20449;-81
2023/12/18 11:51:03;;;;;;;15.30;14.00;;;8.50;99.90;;;;;;5017048;28;20491;-81
2023/12/18 11:53:34;;;;;;;15.83;14.13;;;8.30;99.90;;;;;;5021684;28;21062;-83
2023/12/18 11:56:06;;;;;;;14.53;13.20;;;8.20;99.90;;;;;;5025919;28;20451;-80
2023/12/18 11:58:35;;;;;;;14.80;13.40;;;8.30;99.90;;;;;;5023962;28;20446;-81
2023/12/18 12:01:02;;;;;;;14.70;13.17;;;8.10;99.90;;;;;;5018168;28;21018;-83
2023/12/18 12:03:32;;;;;;;17.83;13.90;;;8.40;99.90;;;;;;5018176;28;20435;-81
2023/12/18 12:06:00;;;;;;;14.63;13.17;;;8.50;99.90;;;;;;5017042;28;20451;-80
2023/12/18 12:08:27;;;;;;;15.77;14.33;;;8.40;99.90;;;;;;5017539;28;20456;-80
2023/12/18 12:10:56;;;;;;;18.20;14.13;;;8.30;99.90;;;;;;5016413;28;20493;-80
2023/12/18 12:13:25;;;;;;;14.77;13.37;;;8.50;99.90;;;;;;5017056;28;20805;-80
2023/12/18 12:15:56;;;;;;;15.40;13.93;;;8.50;99.90;;;;;;5017295;28;20443;-83
2023/12/18 12:18:25;;;;;;;15.20;13.80;;;8.50;99.90;;;;;;5015710;28;20510;-79
2023/12/18 12:20:53;;;;;;;15.13;13.83;;;8.50;99.90;;;;;;5014119;28;20470;-80
2023/12/18 12:23:20;;;;;;;15.67;14.17;;;8.50;99.90;;;;;;5016793;28;20956;-78
2023/12/18 12:25:47;;;;;;;16.23;14.63;;;8.40;99.90;;;;;;5013371;28;20447;-80
2023/12/18 12:28:15;;;;;;;15.83;14.20;;;8.40;99.90;;;;;;5013556;28;20531;-80
2023/12/18 12:30:42;;;;;;;15.90;14.17;;;8.40;99.90;;;;;;5012559;28;20959;-80
2023/12/18 12:33:09;;;;;;;14.60;13.20;;;8.40;99.90;;;;;;5013760;28;20446;-79
2023/12/18 12:35:36;;;;;;;14.90;13.23;;;8.40;99.90;;;;;;5013571;28;20475;-78